createdAt,value
2024-01-15T00:00:36.019Z,82.67
2024-01-15T00:03:03.924Z,83.29
2024-01-15T00:05:30.993Z,81.50
2024-01-15T00:07:58.035Z,81.41
2024-01-15T00:10:25.188Z,81.41
2024-01-15T00:12:52.202Z,82.82
2024-01-15T00:15:19.223Z,82.61
2024-01-15T00:17:47.264Z,80.59
2024-01-15T00:20:14.357Z,81.94
2024-01-15T00:22:41.368Z,80.95
2024-01-15T00:26:35.828Z,81.44
2024-01-15T00:29:33.770Z,81.43
2024-01-15T00:32:00.719Z,82.17
2024-01-15T00:34:27.752Z,84.62
2024-01-15T00:36:55.418Z,82.45
2024-01-15T00:39:22.361Z,81.35
2024-01-15T00:41:49.366Z,79.54
2024-01-15T00:44:16.387Z,80.56
2024-01-15T00:46:47.306Z,81.45
2024-01-15T00:49:15.033Z,80.59
2024-01-15T00:51:42.457Z,80.10
2024-01-15T00:54:09.838Z,80.18
2024-01-15T00:56:38.263Z,81.31
2024-01-15T00:59:05.147Z,79.37
2024-01-15T01:01:32.777Z,80.18
2024-01-15T01:03:59.864Z,83.46
2024-01-15T01:06:26.933Z,81.72
2024-01-15T01:08:53.825Z,81.56
2024-01-15T01:11:20.810Z,81.92
2024-01-15T01:13:47.734Z,79.42
2024-01-15T01:16:14.575Z,81.35
2024-01-15T01:18:41.624Z,83.22
2024-01-15T01:21:08.632Z,82.05
2024-01-15T01:23:35.614Z,80.84
2024-01-15T01:26:02.572Z,81.53
2024-01-15T01:28:29.622Z,80.66
2024-01-15T01:30:56.687Z,79.96
2024-01-15T01:33:23.751Z,79.54
2024-01-15T01:35:50.799Z,80.72
2024-01-15T01:38:17.814Z,81.84
2024-01-15T01:40:44.756Z,81.91
2024-01-15T01:43:11.756Z,79.62
2024-01-15T01:45:39.867Z,77.99
2024-01-15T01:48:07.676Z,79.60
2024-01-15T01:50:34.885Z,79.05
2024-01-15T01:53:05.482Z,79.08
2024-01-15T01:55:34.693Z,79.85
2024-01-15T01:58:03.182Z,79.64
2024-01-15T02:00:32.430Z,80.08
2024-01-15T02:02:59.622Z,78.71
2024-01-15T02:05:28.045Z,76.50
2024-01-15T02:07:55.235Z,76.72
2024-01-15T02:10:22.214Z,77.96
2024-01-15T02:12:49.840Z,79.34
2024-01-15T02:15:17.123Z,78.89
2024-01-15T02:18:08.340Z,78.37
2024-01-15T02:20:35.845Z,78.77
2024-01-15T02:23:16.681Z,78.62
2024-01-15T02:25:48.357Z,78.65
2024-01-15T02:28:18.462Z,77.58
2024-01-15T02:30:46.262Z,77.48
2024-01-15T02:33:14.166Z,77.26
2024-01-15T02:35:41.743Z,76.48
2024-01-15T02:38:09.300Z,77.69
2024-01-15T02:40:36.923Z,75.06
2024-01-15T02:43:04.209Z,74.38
2024-01-15T02:45:31.752Z,73.41
2024-01-15T02:47:58.760Z,73.20
2024-01-15T02:50:25.762Z,73.56
2024-01-15T02:52:53.421Z,75.98
2024-01-15T02:55:20.386Z,75.53
2024-01-15T02:57:47.582Z,75.57
2024-01-15T03:00:15.323Z,73.84
2024-01-15T03:02:48.652Z,74.71
2024-01-15T03:05:16.386Z,74.50
2024-01-15T03:07:44.280Z,78.63
2024-01-15T03:10:11.264Z,76.77
2024-01-15T03:12:38.425Z,76.52
2024-01-15T03:15:06.496Z,77.50
2024-01-15T03:17:33.684Z,77.00
2024-01-15T03:20:00.920Z,76.89
2024-01-15T03:22:27.938Z,78.66
2024-01-15T03:24:55.009Z,80.88
2024-01-15T03:27:21.899Z,78.67
2024-01-15T03:29:48.862Z,77.23
2024-01-15T03:32:17.422Z,79.12
2024-01-15T03:34:44.696Z,77.16
2024-01-15T03:37:11.698Z,79.89
2024-01-15T03:39:38.698Z,78.58
2024-01-15T03:42:06.126Z,78.33
2024-01-15T03:44:33.068Z,78.94
2024-01-15T03:47:00.186Z,79.79
2024-01-15T03:49:27.220Z,79.52
2024-01-15T03:51:54.259Z,79.66
2024-01-15T03:54:21.397Z,80.33
2024-01-15T03:56:48.580Z,79.18
2024-01-15T03:59:15.727Z,77.81
2024-01-15T04:01:42.688Z,75.75
2024-01-15T04:04:09.633Z,82.10
2024-01-15T04:06:36.759Z,80.59
2024-01-15T04:09:04.014Z,81.67
2024-01-15T04:11:31.038Z,82.32
2024-01-15T04:13:57.918Z,81.83
2024-01-15T04:16:24.934Z,79.78
2024-01-15T04:18:52.047Z,81.70
2024-01-15T04:21:19.848Z,83.78
2024-01-15T04:23:46.929Z,82.84
2024-01-15T04:26:13.951Z,80.96
2024-01-15T04:28:41.582Z,82.02
2024-01-15T04:31:08.775Z,81.91
2024-01-15T04:33:36.080Z,81.86
2024-01-15T04:36:05.215Z,80.35
2024-01-15T04:38:33.594Z,81.37
2024-01-15T04:41:00.561Z,81.51
2024-01-15T04:43:27.437Z,80.15
2024-01-15T04:45:54.332Z,82.27
2024-01-15T04:48:21.382Z,79.77
2024-01-15T04:50:49.150Z,78.76
2024-01-15T04:53:16.052Z,77.00
2024-01-15T04:55:44.079Z,81.53
2024-01-15T04:58:10.983Z,79.44
2024-01-15T05:00:37.885Z,82.34
2024-01-15T05:03:05.520Z,82.82
2024-01-15T05:05:32.453Z,83.33
2024-01-15T05:07:59.353Z,80.62
2024-01-15T05:10:26.559Z,82.34
2024-01-15T05:12:53.655Z,83.19
2024-01-15T05:15:21.044Z,86.78
2024-01-15T05:17:48.202Z,88.27
2024-01-15T05:20:15.842Z,87.35
2024-01-15T05:22:42.850Z,86.96
2024-01-15T05:25:09.702Z,86.74
2024-01-15T05:27:36.617Z,84.44
2024-01-15T05:30:05.053Z,86.48
2024-01-15T05:32:32.678Z,87.04
2024-01-15T05:34:59.678Z,87.04
2024-01-15T05:37:26.890Z,85.59
2024-01-15T05:39:53.904Z,87.71
2024-01-15T05:42:20.941Z,89.58
2024-01-15T05:44:47.860Z,87.87
2024-01-15T05:47:14.787Z,91.51
2024-01-15T05:49:42.018Z,90.26
2024-01-15T05:52:09.020Z,90.05
2024-01-15T05:54:36.103Z,93.43
2024-01-15T05:57:06.831Z,94.07
2024-01-15T05:59:37.479Z,93.93
2024-01-15T06:02:05.169Z,89.56
2024-01-15T06:04:32.254Z,91.15
2024-01-15T06:06:59.423Z,94.00
2024-01-15T06:09:26.475Z,90.30
2024-01-15T06:11:53.426Z,90.99
2024-01-15T06:14:20.337Z,92.22
2024-01-15T06:16:47.386Z,92.35
2024-01-15T06:19:14.343Z,91.57
2024-01-15T06:21:41.413Z,89.38
2024-01-15T06:24:08.330Z,92.14
2024-01-15T06:26:35.434Z,90.32
2024-01-15T06:29:04.184Z,88.81
2024-01-15T06:31:31.432Z,90.75
2024-01-15T06:33:58.684Z,90.20
2024-01-15T06:36:25.842Z,89.02
2024-01-15T06:38:52.833Z,88.39
2024-01-15T06:41:19.830Z,87.53
2024-01-15T06:43:46.726Z,90.05
2024-01-15T06:46:23.614Z,87.47
2024-01-15T06:48:52.878Z,88.34
2024-01-15T06:51:19.936Z,90.17
2024-01-15T06:53:46.977Z,90.24
2024-01-15T06:56:14.043Z,88.34
2024-01-15T06:58:41.142Z,98.52
2024-01-15T07:01:10.066Z,93.33
2024-01-15T07:03:37.077Z,89.23
2024-01-15T07:06:04.628Z,89.72
2024-01-15T07:08:31.583Z,97.44
2024-01-15T07:10:58.587Z,90.16
2024-01-15T07:13:25.692Z,91.00
2024-01-15T07:15:52.913Z,99.15
2024-01-15T07:18:20.035Z,91.10
2024-01-15T07:20:47.101Z,91.63
2024-01-15T07:23:14.083Z,90.42
2024-01-15T07:25:41.001Z,94.54
2024-01-15T07:28:07.996Z,93.21
2024-01-15T07:30:35.002Z,93.12
2024-01-15T07:33:02.229Z,94.02
2024-01-15T07:35:29.359Z,92.62
2024-01-15T07:37:56.282Z,93.66
2024-01-15T07:40:23.256Z,94.67
2024-01-15T07:42:50.342Z,93.55
2024-01-15T07:45:17.539Z,93.57
2024-01-15T07:47:45.708Z,95.26
2024-01-15T07:50:12.967Z,91.78
2024-01-15T07:52:45.166Z,93.78
2024-01-15T07:55:12.199Z,92.31
2024-01-15T07:57:39.229Z,90.42
2024-01-15T08:00:07.304Z,89.70
2024-01-15T08:02:37.118Z,89.82
2024-01-15T08:05:05.046Z,90.15
2024-01-15T08:07:32.125Z,89.33
2024-01-15T08:09:59.706Z,88.22
2024-01-15T08:12:26.859Z,88.61
2024-01-15T08:14:53.955Z,90.46
2024-01-15T08:17:21.004Z,90.72
2024-01-15T08:19:48.326Z,90.75
2024-01-15T08:22:15.421Z,90.80
2024-01-15T08:24:42.422Z,88.08
2024-01-15T08:27:09.976Z,87.32
2024-01-15T08:29:36.892Z,87.87
2024-01-15T08:32:04.192Z,88.71
2024-01-15T08:34:32.514Z,90.32
2024-01-15T08:36:59.586Z,89.03
2024-01-15T08:39:26.484Z,86.47
2024-01-15T08:41:53.415Z,87.13
2024-01-15T08:44:20.448Z,87.41
2024-01-15T08:46:47.380Z,90.84
2024-01-15T08:49:14.334Z,90.88
2024-01-15T08:51:41.434Z,91.46
2024-01-15T08:54:09.727Z,91.27
2024-01-15T08:56:36.787Z,92.94
2024-01-15T08:59:03.734Z,92.47
2024-01-15T09:01:31.138Z,92.68
2024-01-15T09:03:58.235Z,93.69
2024-01-15T09:06:25.340Z,95.15
2024-01-15T09:08:52.323Z,95.15
2024-01-15T09:11:19.223Z,95.42
2024-01-15T09:13:46.157Z,101.33
2024-01-15T09:16:13.181Z,102.20
2024-01-15T09:18:40.344Z,101.05
2024-01-15T09:21:09.458Z,102.03
2024-01-15T09:23:36.962Z,106.67
2024-01-15T09:26:03.962Z,107.63
2024-01-15T09:28:30.994Z,106.83
2024-01-15T09:30:58.003Z,110.90
2024-01-15T09:33:25.094Z,106.37
2024-01-15T09:35:52.106Z,106.55
2024-01-15T09:38:20.349Z,103.98
2024-01-15T09:40:48.208Z,102.20
2024-01-15T09:43:17.040Z,98.26
2024-01-15T09:45:45.265Z,99.83
2024-01-15T09:48:13.918Z,95.89
2024-01-15T09:50:41.057Z,95.78
2024-01-15T09:53:08.054Z,95.03
2024-01-15T09:55:35.308Z,97.70
2024-01-15T09:58:04.093Z,100.40
2024-01-15T10:00:34.284Z,101.40
2024-01-15T10:03:01.493Z,101.51
2024-01-15T10:05:28.906Z,97.57
2024-01-15T10:07:58.738Z,98.83
2024-01-15T10:10:27.584Z,100.88
2024-01-15T10:12:56.443Z,100.17
2024-01-15T10:15:25.076Z,103.04
2024-01-15T10:17:52.178Z,101.95
2024-01-15T10:20:19.466Z,101.71
2024-01-15T10:22:49.866Z,103.45
2024-01-15T10:25:17.409Z,103.15
2024-01-15T10:27:45.015Z,103.87
2024-01-15T10:30:15.265Z,104.98
2024-01-15T10:32:42.438Z,105.62
2024-01-15T10:35:09.771Z,104.35
2024-01-15T10:37:36.748Z,103.90
2024-01-15T10:40:07.766Z,102.00
2024-01-15T10:42:35.033Z,103.22
2024-01-15T10:45:02.363Z,104.09
2024-01-15T10:47:30.721Z,102.32
2024-01-15T10:49:58.292Z,102.88
2024-01-15T10:52:26.127Z,101.74
2024-01-15T10:54:54.445Z,103.75
2024-01-15T10:57:23.672Z,104.42
2024-01-15T10:59:50.600Z,104.82
2024-01-15T11:02:18.329Z,103.26
2024-01-15T11:04:45.584Z,103.84
2024-01-15T11:07:14.749Z,103.32
2024-01-15T11:09:41.683Z,101.24
2024-01-15T11:12:12.996Z,103.14
2024-01-15T11:14:49.507Z,103.35
2024-01-15T11:17:19.030Z,101.66
2024-01-15T11:19:49.424Z,97.79
2024-01-15T11:22:31.670Z,97.57
2024-01-15T11:25:05.595Z,94.76
2024-01-15T11:27:52.723Z,95.14
2024-01-15T11:32:48.715Z,93.86
2024-01-15T11:35:16.275Z,94.11
2024-01-15T11:37:52.642Z,91.86
2024-01-15T11:40:45.689Z,91.31
2024-01-15T11:43:14.602Z,90.82
2024-01-15T11:45:42.506Z,87.16
2024-01-15T11:48:15.861Z,89.59
2024-01-15T11:50:50.674Z,87.59
2024-01-15T11:53:46.662Z,82.52
2024-01-15T11:56:18.887Z,78.05
2024-01-15T11:58:46.345Z,76.44
2024-01-15T12:01:13.691Z,79.67
2024-01-15T12:03:40.742Z,78.47
2024-01-15T12:06:08.710Z,75.59
2024-01-15T12:08:36.500Z,77.17
2024-01-15T12:11:12.390Z,76.42
2024-01-15T12:13:39.416Z,73.20
2024-01-15T12:16:06.636Z,70.14
2024-01-15T12:18:33.809Z,72.79
2024-01-15T12:21:03.297Z,74.01
2024-01-15T12:23:30.906Z,72.49
2024-01-15T12:25:57.878Z,71.71
2024-01-15T12:28:24.860Z,70.58
2024-01-15T12:30:52.321Z,69.85
2024-01-15T12:33:21.527Z,70.27
2024-01-15T12:35:48.641Z,68.64
2024-01-15T12:38:15.589Z,68.27
2024-01-15T12:40:47.948Z,67.83
2024-01-15T12:43:14.968Z,66.52
2024-01-15T12:45:42.380Z,65.39
2024-01-15T12:48:10.287Z,64.33
2024-01-15T12:50:37.240Z,66.00
2024-01-15T12:53:04.392Z,64.65
2024-01-15T12:55:31.327Z,65.06
2024-01-15T12:57:58.329Z,66.09
2024-01-15T13:00:27.725Z,64.46
2024-01-15T13:02:56.130Z,61.00
2024-01-15T13:05:24.913Z,64.32
2024-01-15T13:07:52.287Z,66.72
2024-01-15T13:10:19.129Z,65.25
2024-01-15T13:12:46.261Z,65.63
2024-01-15T13:15:14.400Z,61.06
2024-01-15T13:17:43.653Z,58.84
2024-01-15T13:20:12.775Z,60.55
2024-01-15T13:22:41.677Z,61.08
2024-01-15T13:25:10.253Z,63.21
2024-01-15T13:27:38.736Z,63.30
2024-01-15T13:30:09.252Z,65.19
2024-01-15T13:32:36.855Z,65.16
2024-01-15T13:35:06.782Z,64.60
2024-01-15T13:37:33.890Z,64.69
2024-01-15T13:40:00.848Z,62.20
2024-01-15T13:42:28.732Z,60.98
2024-01-15T13:44:56.214Z,58.68
2024-01-15T13:47:23.617Z,56.75
2024-01-15T13:49:52.695Z,57.54
2024-01-15T13:52:21.217Z,59.04
2024-01-15T13:54:50.479Z,60.80
2024-01-15T13:57:20.462Z,60.50
2024-01-15T13:59:47.714Z,60.22
2024-01-15T14:02:19.081Z,58.51
2024-01-15T14:04:50.049Z,56.98
2024-01-15T14:07:17.493Z,58.55
2024-01-15T14:09:44.579Z,57.53
2024-01-15T14:12:11.651Z,57.05
2024-01-15T14:14:38.506Z,56.90
2024-01-15T14:17:05.524Z,56.61
2024-01-15T14:19:32.671Z,55.38
2024-01-15T14:21:59.718Z,56.91
2024-01-15T14:24:26.692Z,57.32
2024-01-15T14:26:53.595Z,58.53
2024-01-15T14:29:21.940Z,59.79
2024-01-15T14:31:49.024Z,57.82
2024-01-15T14:34:16.686Z,59.96
2024-01-15T14:36:43.768Z,60.08
2024-01-15T14:39:13.446Z,59.41
2024-01-15T14:41:40.559Z,62.40
2024-01-15T14:44:07.660Z,61.20
2024-01-15T14:46:34.541Z,61.07
2024-01-15T14:49:01.481Z,60.89
2024-01-15T14:51:28.469Z,61.07
2024-01-15T14:53:55.917Z,60.48
2024-01-15T14:56:23.413Z,58.87
2024-01-15T14:58:50.754Z,55.67
2024-01-15T15:01:17.982Z,55.06
2024-01-15T15:03:49.160Z,54.66
2024-01-15T15:06:17.731Z,54.63
2024-01-15T15:08:44.665Z,54.93
2024-01-15T15:11:12.689Z,59.54
2024-01-15T15:13:45.503Z,59.22
2024-01-15T15:16:14.900Z,56.06
2024-01-15T15:18:47.353Z,53.28
2024-01-15T15:21:14.650Z,52.03
2024-01-15T15:23:41.629Z,52.08
2024-01-15T15:26:08.564Z,51.49
2024-01-15T15:28:38.579Z,51.63
2024-01-15T15:31:12.395Z,51.28
2024-01-15T15:33:39.514Z,52.93
2024-01-15T15:36:06.825Z,50.98
2024-01-15T15:38:34.330Z,51.80
2024-01-15T15:41:02.310Z,51.43
2024-01-15T15:43:30.520Z,51.55
2024-01-15T15:46:01.206Z,50.22
2024-01-15T15:48:28.768Z,49.42
2024-01-15T15:51:01.017Z,50.25
2024-01-15T15:53:28.076Z,49.67
2024-01-15T15:55:55.024Z,53.52
2024-01-15T15:58:21.924Z,53.17
2024-01-15T16:00:49.185Z,54.40
2024-01-15T16:03:16.735Z,53.38
2024-01-15T16:05:51.825Z,53.00
2024-01-15T16:08:21.243Z,52.42
2024-01-15T16:10:52.892Z,51.54
2024-01-15T16:13:20.573Z,53.56
2024-01-15T16:15:47.799Z,53.84
2024-01-15T16:23:19.724Z,54.20
2024-01-15T16:23:34.627Z,56.74
2024-01-15T16:24:11.431Z,62.02
2024-01-15T16:26:38.333Z,57.11
2024-01-15T16:29:05.609Z,55.02
2024-01-15T16:31:32.700Z,55.23
2024-01-15T16:34:04.901Z,57.19
2024-01-15T16:36:34.052Z,56.61
2024-01-15T16:39:02.582Z,58.56
2024-01-15T16:41:30.645Z,59.69
2024-01-15T16:43:57.828Z,57.74
2024-01-15T16:46:24.834Z,57.90
2024-01-15T16:48:51.992Z,56.84
2024-01-15T16:51:18.981Z,55.80
2024-01-15T16:53:45.975Z,56.13
2024-01-15T16:56:12.888Z,55.42
2024-01-15T16:58:39.912Z,57.71
2024-01-15T17:01:09.986Z,56.73
2024-01-15T17:03:37.169Z,53.80
2024-01-15T17:06:04.274Z,55.60
2024-01-15T17:08:31.740Z,56.05
2024-01-15T17:11:01.381Z,54.72
2024-01-15T17:13:29.608Z,54.42
2024-01-15T17:15:56.637Z,52.20
2024-01-15T17:18:23.604Z,51.22
2024-01-15T17:20:50.549Z,49.12
2024-01-15T17:23:17.571Z,49.85
2024-01-15T17:25:44.544Z,51.36
2024-01-15T17:28:11.508Z,51.53
2024-01-15T17:30:38.427Z,50.11
2024-01-15T17:33:05.753Z,50.41
2024-01-15T17:35:32.922Z,50.18
2024-01-15T17:38:00.816Z,50.67
2024-01-15T17:40:27.834Z,51.34
2024-01-15T17:42:54.680Z,52.60
2024-01-15T17:45:22.081Z,52.74
2024-01-15T17:47:52.646Z,59.42
2024-01-15T17:50:20.152Z,56.64
2024-01-15T17:52:47.231Z,54.29
2024-01-15T17:55:14.471Z,57.98
2024-01-15T17:57:41.816Z,58.45
2024-01-15T18:00:10.204Z,55.40
2024-01-15T18:02:37.449Z,57.28
2024-01-15T18:05:05.500Z,57.53
2024-01-15T18:07:32.607Z,56.50
2024-01-15T18:10:00.011Z,57.83
2024-01-15T18:12:26.908Z,59.41
2024-01-15T18:14:54.798Z,60.49
2024-01-15T18:17:24.897Z,62.80
2024-01-15T18:19:53.199Z,63.84
2024-01-15T18:22:20.556Z,66.24
2024-01-15T18:24:47.484Z,65.43
2024-01-15T18:27:14.585Z,61.41
2024-01-15T18:29:41.654Z,60.88
2024-01-15T18:32:08.757Z,63.66
2024-01-15T18:34:37.218Z,69.74
2024-01-15T18:37:05.300Z,68.99
2024-01-15T18:39:32.241Z,65.30
2024-01-15T18:41:59.227Z,66.69
2024-01-15T18:44:26.202Z,73.78
2024-01-15T18:46:53.205Z,75.69
2024-01-15T18:49:22.125Z,64.12
2024-01-15T18:51:54.333Z,70.50
2024-01-15T18:54:22.504Z,66.06
2024-01-15T18:56:49.611Z,68.33
2024-01-15T18:59:16.773Z,71.28
2024-01-15T19:01:44.928Z,70.97
2024-01-15T19:04:13.449Z,65.14
2024-01-15T19:06:42.042Z,62.27
2024-01-15T19:09:11.447Z,60.28
2024-01-15T19:11:38.871Z,65.73
2024-01-15T19:14:07.050Z,67.00
2024-01-15T19:16:34.109Z,64.18
2024-01-15T19:19:01.106Z,63.07
2024-01-15T19:21:28.049Z,63.38
2024-01-15T19:23:55.081Z,65.63
2024-01-15T19:26:23.262Z,65.52
2024-01-15T19:28:50.311Z,62.52
2024-01-15T19:31:18.285Z,65.45
2024-01-15T19:33:45.326Z,65.55
2024-01-15T19:36:25.838Z,67.04
2024-01-15T19:38:54.132Z,67.84
2024-01-15T19:41:22.152Z,67.11
2024-01-15T19:43:49.335Z,67.31
2024-01-15T19:46:16.933Z,66.56
2024-01-15T19:48:44.071Z,65.29
2024-01-15T19:51:13.716Z,65.60
2024-01-15T19:53:42.389Z,66.42
2024-01-15T19:56:09.901Z,66.14
2024-01-15T19:58:38.326Z,67.61
2024-01-15T20:01:06.241Z,64.29
2024-01-15T20:03:33.352Z,61.01
2024-01-15T20:06:00.604Z,57.10
2024-01-15T20:08:27.738Z,63.65
2024-01-15T20:10:56.960Z,62.64
2024-01-15T20:13:23.945Z,63.68
2024-01-15T20:15:51.189Z,66.24
2024-01-15T20:18:19.088Z,65.60
2024-01-15T20:20:46.353Z,74.52
2024-01-15T20:23:13.473Z,73.73
2024-01-15T20:25:40.486Z,66.04
2024-01-15T20:28:07.867Z,66.76
2024-01-15T20:30:35.037Z,72.38
2024-01-15T20:33:02.423Z,73.11
2024-01-15T20:35:30.042Z,74.96
2024-01-15T20:37:58.520Z,77.03
2024-01-15T20:40:25.869Z,75.83
2024-01-15T20:42:53.151Z,76.54
2024-01-15T20:45:20.191Z,78.77
2024-01-15T20:47:47.194Z,75.90
2024-01-15T20:50:14.470Z,76.99
2024-01-15T20:52:41.535Z,74.99
2024-01-15T20:55:10.203Z,75.60
2024-01-15T20:57:37.476Z,73.20
2024-01-15T21:00:08.325Z,72.94
2024-01-15T21:02:37.818Z,70.14
2024-01-15T21:05:06.499Z,69.24
2024-01-15T21:07:33.657Z,73.86
2024-01-15T21:10:00.841Z,75.24
2024-01-15T21:12:28.045Z,76.20
2024-01-15T21:14:57.109Z,79.62
2024-01-15T21:17:24.741Z,85.43
2024-01-15T21:19:57.173Z,88.99
2024-01-15T21:22:24.567Z,84.66
2024-01-15T21:24:52.098Z,77.36
2024-01-15T21:27:19.199Z,77.40
2024-01-15T21:29:46.711Z,91.94
2024-01-15T21:32:13.771Z,90.25
2024-01-15T21:34:43.739Z,91.92
2024-01-15T21:37:11.004Z,93.74
2024-01-15T21:39:39.393Z,84.76
2024-01-15T21:42:06.576Z,81.97
2024-01-15T21:44:33.941Z,79.49
2024-01-15T21:47:01.273Z,85.13
2024-01-15T21:49:28.595Z,89.35
2024-01-15T21:51:55.772Z,84.43
2024-01-15T21:54:22.900Z,91.37
2024-01-15T21:56:50.073Z,90.29
2024-01-15T21:59:17.411Z,85.10
2024-01-15T22:01:44.566Z,88.82
2024-01-15T22:04:12.521Z,88.18
2024-01-15T22:06:39.895Z,86.53
2024-01-15T22:09:07.322Z,82.20
2024-01-15T22:11:34.486Z,81.85
2024-01-15T22:14:01.581Z,78.02
2024-01-15T22:16:28.649Z,76.58
2024-01-15T22:18:58.659Z,75.61
2024-01-15T22:21:27.337Z,75.90
2024-01-15T22:23:54.209Z,78.02
2024-01-15T22:26:21.257Z,76.88
2024-01-15T22:28:48.328Z,76.21
2024-01-15T22:31:15.238Z,75.15
2024-01-15T22:33:42.313Z,78.09
2024-01-15T22:36:09.426Z,77.83
2024-01-15T22:38:36.372Z,74.76
2024-01-15T22:41:03.857Z,71.96
2024-01-15T22:43:30.931Z,76.73
2024-01-15T22:45:57.880Z,79.13
2024-01-15T22:48:25.799Z,76.48
2024-01-15T22:50:52.819Z,78.98
2024-01-15T22:53:19.746Z,76.99
2024-01-15T22:55:46.761Z,77.21
2024-01-15T22:58:13.699Z,79.39
2024-01-15T23:00:44.912Z,79.86
2024-01-15T23:03:12.736Z,77.56
2024-01-15T23:05:40.179Z,74.98
2024-01-15T23:08:07.294Z,75.94
2024-01-15T23:10:34.246Z,77.83
2024-01-15T23:13:01.133Z,80.00
2024-01-15T23:15:29.719Z,80.24
2024-01-15T23:18:02.827Z,78.88
2024-01-15T23:20:29.904Z,77.41
2024-01-15T23:22:57.108Z,78.00
2024-01-15T23:25:24.055Z,73.68
2024-01-15T23:27:51.080Z,73.94
2024-01-15T23:30:18.291Z,75.03
2024-01-15T23:32:45.353Z,76.04
2024-01-15T23:35:13.109Z,76.23
2024-01-15T23:37:40.864Z,76.45
2024-01-15T23:40:09.340Z,76.51
2024-01-15T23:42:36.475Z,75.26
2024-01-15T23:45:03.786Z,74.60
2024-01-15T23:47:30.846Z,72.50
2024-01-15T23:49:57.877Z,74.30
2024-01-15T23:52:24.843Z,73.14
2024-01-15T23:54:52.364Z,75.01
2024-01-15T23:57:19.286Z,77.37
2024-01-15T23:59:46.227Z,75.88
